Time;durP1;ratioP1;P1;durP2;ratioP2;P2;SDS_P1;SDS_P2;PMS_P1;PMS_P2;Temp;Humidity;BMP_temperature;BMP_pressure;BME280_temperature;BME280_humidity;BME280_pressure;Samples;Min_cycle;Max_cycle;Signal;HPM_P1;HPM_P2
2022/03/30 00:01:37;;;;;;;;;54.50;41.75;16.00;34.50;;;;;;4975630;28;8917;-62
2022/03/30 00:04:03;;;;;;;;;54.50;44.50;16.10;34.30;;;;;;4972795;28;8769;-62
2022/03/30 00:06:28;;;;;;;;;50.50;41.25;16.20;34.20;;;;;;4966050;28;8776;-62
2022/03/30 00:08:54;;;;;;;;;54.25;44.50;16.20;34.30;;;;;;4966336;28;8763;-63
2022/03/30 00:11:20;;;;;;;;;51.00;43.00;16.10;34.40;;;;;;4964392;28;8863;-62
2022/03/30 00:13:46;;;;;;;;;45.00;39.25;16.10;34.40;;;;;;4959634;28;8898;-62
2022/03/30 00:16:12;;;;;;;;;50.00;41.25;16.10;34.30;;;;;;4959266;28;8765;-62
2022/03/30 00:18:38;;;;;;;;;50.75;43.75;16.10;34.50;;;;;;4959458;28;8787;-62
2022/03/30 00:21:04;;;;;;;;;51.50;43.75;16.10;34.40;;;;;;4959085;28;8812;-63
2022/03/30 00:23:30;;;;;;;;;50.25;41.50;16.10;34.30;;;;;;4959418;28;8854;-63
2022/03/30 00:25:56;;;;;;;;;48.75;41.25;16.10;34.50;;;;;;4959067;28;8764;-63
2022/03/30 00:28:23;;;;;;;;;56.75;43.00;16.10;34.40;;;;;;4959351;28;8768;-63
2022/03/30 00:30:49;;;;;;;;;53.25;43.75;16.10;34.60;;;;;;4959245;28;9464;-62
2022/03/30 00:33:15;;;;;;;;;53.00;44.25;16.00;35.00;;;;;;4959043;28;8757;-63
2022/03/30 00:35:41;;;;;;;;;52.75;44.50;15.90;34.90;;;;;;4958986;28;8800;-62
2022/03/30 00:38:07;;;;;;;;;52.25;43.75;16.00;34.90;;;;;;4958887;28;8851;-63
2022/03/30 00:40:32;;;;;;;;;53.50;44.50;15.90;34.90;;;;;;4958857;28;8808;-62
2022/03/30 00:42:58;;;;;;;;;56.00;44.00;15.80;35.50;;;;;;4959088;28;8923;-62
2022/03/30 00:45:24;;;;;;;;;47.50;40.25;15.80;35.30;;;;;;4959048;28;8765;-63
2022/03/30 00:47:52;;;;;;;;;51.50;43.50;16.10;34.80;;;;;;4958675;28;8806;-62
2022/03/30 00:50:20;;;;;;;;;47.75;40.50;16.30;34.10;;;;;;4958544;28;8796;-63
2022/03/30 00:52:49;;;;;;;;;49.75;42.25;16.20;34.40;;;;;;4958891;28;9395;-63
2022/03/30 00:55:17;;;;;;;;;49.00;41.50;16.20;34.50;;;;;;4958831;28;8773;-63
2022/03/30 00:57:45;;;;;;;;;49.75;40.50;16.40;33.80;;;;;;4958769;28;8768;-63
2022/03/30 01:00:14;;;;;;;;;49.25;42.75;16.30;34.10;;;;;;4958671;28;8764;-63
2022/03/30 01:02:43;;;;;;;;;38.25;33.50;16.30;34.30;;;;;;4958445;28;8792;-63
2022/03/30 01:05:10;;;;;;;;;49.25;40.75;16.30;34.30;;;;;;4958385;28;8807;-62
2022/03/30 01:07:36;;;;;;;;;41.00;37.00;15.90;34.70;;;;;;4958024;28;8768;-63
2022/03/30 01:10:06;;;;;;;;;48.00;40.50;15.80;34.90;;;;;;4958369;28;8788;-63
2022/03/30 01:12:34;;;;;;;;;42.00;36.00;16.10;34.40;;;;;;4958337;28;8796;-63
2022/03/30 01:15:00;;;;;;;;;44.00;36.50;16.60;33.10;;;;;;4958440;28;8808;-63
2022/03/30 01:17:27;;;;;;;;;40.00;35.25;16.80;32.50;;;;;;4958264;28;8796;-63
2022/03/30 01:19:52;;;;;;;;;42.75;38.25;17.00;32.00;;;;;;4958155;28;8777;-62
2022/03/30 01:22:18;;;;;;;;;44.50;37.25;17.40;31.40;;;;;;4958026;28;8823;-62
2022/03/30 01:24:44;;;;;;;;;44.00;38.00;17.50;31.20;;;;;;4958315;28;8769;-62
2022/03/30 01:27:10;;;;;;;;;44.75;36.25;17.50;31.00;;;;;;4957940;28;8776;-62
2022/03/30 01:32:27;;;;;;;;;43.25;38.50;17.60;30.60;;;;;;4957914;28;8760;-62
2022/03/30 01:34:58;;;;;;;;;36.50;34.75;17.40;30.90;;;;;;4958181;28;8784;-62
2022/03/30 01:37:26;;;;;;;;;45.75;36.50;17.20;31.00;;;;;;4958097;28;8760;-62
2022/03/30 01:39:52;;;;;;;;;47.75;40.00;17.30;31.10;;;;;;4958004;28;8815;-62
2022/03/30 01:42:18;;;;;;;;;39.50;34.50;17.60;30.50;;;;;;4957537;28;8840;-62
2022/03/30 01:44:44;;;;;;;;;42.25;35.75;17.90;30.00;;;;;;4957930;28;8760;-62
2022/03/30 01:47:10;;;;;;;;;44.75;35.75;18.00;29.80;;;;;;4957805;28;8798;-62
2022/03/30 01:49:37;;;;;;;;;48.25;39.50;17.90;29.80;;;;;;4957456;28;8816;-61
2022/03/30 01:52:03;;;;;;;;;41.50;34.75;18.00;29.80;;;;;;4957540;28;8787;-62
2022/03/30 01:54:35;;;;;;;;;49.50;40.75;17.80;30.00;;;;;;4957570;28;8805;-61
2022/03/30 01:57:01;;;;;;;;;54.00;45.00;17.80;30.00;;;;;;4957733;28;8799;-63
2022/03/30 01:59:27;;;;;;;;;55.00;43.25;17.80;30.20;;;;;;4957666;28;8768;-62
2022/03/30 02:01:53;;;;;;;;;52.00;41.50;17.70;30.20;;;;;;4976666;28;8826;-63
2022/03/30 02:04:19;;;;;;;;;47.25;39.00;17.20;31.10;;;;;;4976892;28;9417;-63
2022/03/30 02:06:45;;;;;;;;;43.50;37.00;17.20;31.10;;;;;;4976550;28;8794;-63
2022/03/30 02:09:12;;;;;;;;;45.50;39.75;17.50;30.60;;;;;;4976519;28;8786;-62
2022/03/30 02:11:39;;;;;;;;;44.25;36.00;17.60;30.20;;;;;;4976461;28;8889;-62
2022/03/30 02:14:05;;;;;;;;;36.50;33.50;17.60;30.40;;;;;;4976876;28;8802;-62
2022/03/30 02:16:31;;;;;;;;;30.00;28.50;17.50;30.70;;;;;;4976632;28;8758;-62
2022/03/30 02:18:57;;;;;;;;;33.50;30.50;17.60;30.60;;;;;;4975775;28;8750;-62
2022/03/30 02:21:24;;;;;;;;;32.25;32.25;17.70;30.30;;;;;;4976295;28;8813;-62
2022/03/30 02:23:51;;;;;;;;;30.00;29.50;17.60;30.30;;;;;;4976236;28;8859;-62
2022/03/30 02:26:17;;;;;;;;;27.67;25.67;17.80;30.10;;;;;;4976180;28;8828;-63
2022/03/30 02:28:44;;;;;;;;;29.00;27.00;17.40;30.90;;;;;;4976451;28;8755;-63
2022/03/30 02:31:11;;;;;;;;;27.50;26.50;17.60;30.30;;;;;;4976114;28;8762;-62
2022/03/30 02:33:39;;;;;;;;;29.00;27.50;17.90;30.10;;;;;;4976215;28;8771;-62
2022/03/30 02:36:05;;;;;;;;;31.25;30.00;17.90;30.00;;;;;;4976115;28;8893;-63
2022/03/30 02:38:31;;;;;;;;;34.75;33.00;17.90;29.90;;;;;;4966555;28;8975;-62
2022/03/30 02:40:57;;;;;;;;;31.75;30.50;17.90;30.00;;;;;;4956313;28;8897;-62
2022/03/30 02:43:23;;;;;;;;;24.75;23.75;17.50;30.50;;;;;;4957021;28;8819;-62
2022/03/30 02:45:49;;;;;;;;;32.25;29.75;17.80;30.10;;;;;;4956855;28;8776;-62
2022/03/30 02:48:19;;;;;;;;;22.00;20.50;17.70;30.10;;;;;;4956563;28;8788;-62
2022/03/30 02:50:47;;;;;;;;;45.00;36.00;17.70;31.30;;;;;;4956392;28;8820;-61
2022/03/30 02:53:14;;;;;;;;;51.25;41.00;16.70;33.40;;;;;;4956580;28;8784;-64
2022/03/30 02:55:39;;;;;;;;;50.25;41.75;15.60;36.30;;;;;;4956455;28;8812;-62
2022/03/30 02:58:06;;;;;;;;;43.50;35.75;15.50;36.40;;;;;;4956689;28;8797;-63
2022/03/30 03:00:33;;;;;;;;;48.75;40.50;15.60;36.00;;;;;;4959657;28;8819;-63
2022/03/30 03:03:00;;;;;;;;;57.75;47.00;15.60;36.20;;;;;;4965083;28;8863;-63
2022/03/30 03:05:31;;;;;;;;;57.50;46.00;15.50;36.60;;;;;;4956659;28;8772;-62
2022/03/30 03:07:58;;;;;;;;;62.00;49.25;16.00;35.40;;;;;;4956594;28;8779;-63
2022/03/30 03:10:25;;;;;;;;;53.00;42.25;16.10;35.20;;;;;;4956250;28;8842;-63
2022/03/30 03:12:52;;;;;;;;;48.25;39.00;16.20;34.60;;;;;;4956349;28;8812;-60
2022/03/30 03:15:17;;;;;;;;;53.00;41.75;15.90;35.00;;;;;;4956164;28;8785;-62
2022/03/30 03:17:43;;;;;;;;;49.75;42.00;16.20;34.60;;;;;;4956241;28;8854;-62
2022/03/30 03:20:11;;;;;;;;;40.75;37.50;16.60;33.80;;;;;;4956164;29;8804;-62
2022/03/30 03:22:38;;;;;;;;;48.75;39.50;16.10;34.30;;;;;;4958853;28;8790;-62
2022/03/30 03:25:04;;;;;;;;;50.00;40.75;16.20;33.90;;;;;;4975527;28;8746;-60
2022/03/30 03:27:30;;;;;;;;;59.00;47.75;16.20;34.60;;;;;;4975394;28;8790;-62
2022/03/30 03:29:56;;;;;;;;;53.00;45.00;16.10;35.10;;;;;;4977385;28;8800;-63
2022/03/30 03:32:22;;;;;;;;;70.00;56.00;16.10;34.70;;;;;;4977788;28;8790;-62
2022/03/30 03:34:48;;;;;;;;;62.75;52.00;16.10;35.10;;;;;;4979008;28;8790;-62
2022/03/30 03:37:15;;;;;;;;;64.75;52.00;15.40;36.70;;;;;;4979351;28;8754;-62
2022/03/30 03:39:42;;;;;;;;;62.50;50.75;15.60;36.90;;;;;;4977501;28;8815;-62
2022/03/30 03:42:08;;;;;;;;;57.50;46.25;15.70;36.10;;;;;;4978999;28;8830;-60
2022/03/30 03:44:34;;;;;;;;;58.25;47.75;15.90;35.30;;;;;;4979152;28;8782;-60
2022/03/30 03:47:00;;;;;;;;;51.25;44.00;15.80;35.70;;;;;;4979098;28;8790;-60
2022/03/30 03:49:25;;;;;;;;;54.00;44.00;15.50;36.10;;;;;;4978946;28;8933;-60
2022/03/30 03:51:51;;;;;;;;;47.00;39.00;15.50;36.10;;;;;;4979346;28;9452;-61
2022/03/30 03:54:17;;;;;;;;;45.50;36.50;15.60;36.00;;;;;;4979224;28;8852;-61
2022/03/30 03:56:43;;;;;;;;;46.50;40.25;15.50;35.70;;;;;;4978973;28;8784;-61
2022/03/30 03:59:10;;;;;;;;;51.75;43.50;15.70;35.60;;;;;;4978851;28;8808;-61
2022/03/30 04:01:36;;;;;;;;;47.75;41.00;15.90;35.60;;;;;;4970673;28;8843;-61
2022/03/30 04:04:02;;;;;;;;;47.00;39.00;16.10;35.10;;;;;;4966498;28;8796;-60
2022/03/30 04:06:29;;;;;;;;;41.50;34.50;15.80;35.50;;;;;;4979013;28;8844;-60
2022/03/30 04:08:55;;;;;;;;;46.25;37.50;15.50;35.80;;;;;;4978791;28;8766;-60
2022/03/30 04:11:21;;;;;;;;;36.00;33.00;15.60;35.40;;;;;;4976020;28;8791;-60
2022/03/30 04:13:47;;;;;;;;;44.50;36.75;15.80;35.00;;;;;;4972840;28;8805;-60
2022/03/30 04:16:16;;;;;;;;;52.75;44.75;15.60;35.20;;;;;;4964015;28;8780;-60
2022/03/30 04:18:42;;;;;;;;;40.25;36.00;15.60;35.80;;;;;;4978361;28;8783;-61
2022/03/30 04:21:09;;;;;;;;;41.00;36.25;15.80;35.00;;;;;;4976800;28;8818;-60
2022/03/30 04:23:34;;;;;;;;;35.75;32.00;15.60;35.30;;;;;;4967182;28;9489;-61
2022/03/30 04:26:00;;;;;;;;;45.50;36.50;15.70;35.20;;;;;;4978437;28;8767;-60
2022/03/30 04:28:26;;;;;;;;;44.25;37.25;15.50;35.90;;;;;;4971400;28;8782;-61
2022/03/30 04:30:52;;;;;;;;;56.75;46.50;15.30;36.50;;;;;;4968898;28;8811;-60
2022/03/30 04:33:18;;;;;;;;;59.75;46.75;15.10;38.40;;;;;;4967615;28;8797;-60
2022/03/30 04:35:44;;;;;;;;;59.00;48.25;15.00;37.90;;;;;;4960245;28;8800;-61
2022/03/30 04:38:10;;;;;;;;;61.00;49.50;14.90;38.10;;;;;;4974928;28;8827;-60
2022/03/30 04:40:36;;;;;;;;;55.00;45.25;15.10;37.60;;;;;;4971985;28;9469;-60
2022/03/30 04:43:03;;;;;;;;;59.25;49.00;15.50;36.70;;;;;;4974035;28;8901;-61
2022/03/30 04:45:29;;;;;;;;;56.00;47.00;15.70;36.50;;;;;;4967374;28;8788;-60
2022/03/30 04:47:55;;;;;;;;;61.50;50.50;15.70;36.50;;;;;;4974582;28;8880;-61
2022/03/30 04:50:24;;;;;;;;;56.25;44.50;15.60;36.80;;;;;;4968645;28;8808;-60
2022/03/30 04:52:51;;;;;;;;;57.50;46.00;15.70;36.80;;;;;;4965734;28;8792;-60
2022/03/30 04:55:16;;;;;;;;;53.50;44.50;15.80;36.30;;;;;;4969010;28;8811;-61
2022/03/30 04:57:42;;;;;;;;;60.75;50.50;15.80;36.60;;;;;;4971463;28;8874;-61
2022/03/30 05:00:12;;;;;;;;;56.25;48.00;15.80;36.20;;;;;;4976710;28;8791;-60
2022/03/30 05:02:40;;;;;;;;;60.25;48.75;15.80;35.60;;;;;;4974211;28;8782;-60
2022/03/30 05:05:08;;;;;;;;;55.50;45.50;15.50;36.30;;;;;;4975197;28;8779;-61
2022/03/30 05:07:34;;;;;;;;;55.25;45.00;15.30;36.60;;;;;;4975548;28;8825;-63
2022/03/30 05:10:00;;;;;;;;;57.50;47.25;15.70;36.10;;;;;;4971081;28;8803;-62
2022/03/30 05:12:26;;;;;;;;;59.75;47.75;15.90;36.20;;;;;;4973963;28;8866;-61
2022/03/30 05:14:52;;;;;;;;;57.50;46.25;16.00;36.40;;;;;;4977219;28;8771;-61
2022/03/30 05:17:18;;;;;;;;;52.75;44.00;16.00;35.90;;;;;;4977057;28;8803;-61
2022/03/30 05:19:44;;;;;;;;;56.25;45.50;16.20;35.00;;;;;;4977436;28;8767;-61
2022/03/30 05:22:10;;;;;;;;;54.50;44.50;16.30;35.00;;;;;;4977501;28;8827;-61
2022/03/30 05:24:37;;;;;;;;;52.50;41.75;16.40;35.10;;;;;;4977344;28;8794;-61
2022/03/30 05:27:03;;;;;;;;;53.25;42.50;16.20;35.10;;;;;;4977310;28;8902;-60
2022/03/30 05:29:30;;;;;;;;;41.00;33.75;16.00;35.70;;;;;;4977274;28;8790;-59
2022/03/30 05:31:55;;;;;;;;;41.50;36.75;16.00;35.90;;;;;;4977333;28;8858;-61
2022/03/30 05:34:22;;;;;;;;;32.50;32.00;15.70;36.80;;;;;;4977387;28;9405;-60
2022/03/30 05:36:48;;;;;;;;;34.25;29.75;15.40;38.00;;;;;;4976493;28;8774;-61
2022/03/30 05:39:14;;;;;;;;;35.00;29.50;15.20;38.70;;;;;;4977448;28;8786;-61
2022/03/30 05:41:40;;;;;;;;;34.00;30.50;15.10;39.10;;;;;;4976687;28;9448;-60
2022/03/30 05:44:05;;;;;;;;;36.50;32.75;14.90;39.60;;;;;;4977268;28;8882;-61
2022/03/30 05:46:31;;;;;;;;;31.00;29.00;15.40;38.60;;;;;;4976989;28;8789;-61
2022/03/30 05:48:57;;;;;;;;;34.50;31.25;15.40;39.20;;;;;;4976964;28;8775;-61
2022/03/30 05:51:23;;;;;;;;;35.00;30.75;15.20;40.00;;;;;;4977082;28;8802;-61
2022/03/30 05:53:49;;;;;;;;;30.50;27.25;15.30;40.10;;;;;;4975738;28;8790;-61
2022/03/30 05:56:15;;;;;;;;;26.50;22.75;15.80;38.50;;;;;;4977022;28;8793;-60
2022/03/30 05:58:41;;;;;;;;;27.75;25.00;16.10;37.80;;;;;;4959695;28;8783;-61
2022/03/30 06:01:07;;;;;;;;;30.67;29.00;16.50;37.20;;;;;;4976290;28;8988;-61
2022/03/30 06:03:37;;;;;;;;;26.75;25.75;16.50;37.10;;;;;;4976846;28;8754;-61
2022/03/30 06:06:06;;;;;;;;;24.00;21.00;16.90;36.30;;;;;;4976689;28;8881;-60
2022/03/30 06:08:34;;;;;;;;;24.75;22.25;17.40;35.50;;;;;;4976439;28;8774;-61
2022/03/30 06:11:00;;;;;;;;;30.50;28.75;17.40;35.00;;;;;;4976552;28;8794;-61
2022/03/30 06:13:26;;;;;;;;;35.50;30.50;17.60;35.00;;;;;;4959453;28;9437;-60
2022/03/30 06:15:52;;;;;;;;;28.50;25.25;17.90;34.50;;;;;;4976269;28;8821;-61
2022/03/30 06:18:18;;;;;;;;;24.33;22.00;18.10;34.20;;;;;;4976152;28;8771;-61
2022/03/30 06:20:44;;;;;;;;;31.00;27.00;18.20;34.10;;;;;;4976392;28;8832;-61
2022/03/30 06:23:11;;;;;;;;;35.67;27.33;17.80;35.10;;;;;;4976313;28;8771;-61
2022/03/30 06:25:37;;;;;;;;;33.00;30.00;17.90;34.80;;;;;;4976544;28;9432;-61
2022/03/30 06:28:03;;;;;;;;;31.33;30.00;18.20;34.30;;;;;;4976270;28;8797;-61
2022/03/30 06:30:29;;;;;;;;;34.75;33.25;18.40;33.50;;;;;;4976170;28;8770;-61
2022/03/30 06:32:55;;;;;;;;;40.00;36.75;17.90;35.10;;;;;;4976375;28;8763;-61
2022/03/30 06:35:24;;;;;;;;;37.25;33.00;18.00;35.00;;;;;;4976340;28;8885;-61
2022/03/30 06:37:50;;;;;;;;;31.25;28.25;18.00;34.30;;;;;;4976108;28;8790;-61
2022/03/30 06:40:17;;;;;;;;;29.00;25.50;17.60;35.40;;;;;;4975921;28;8751;-60
2022/03/30 06:42:44;;;;;;;;;28.33;27.00;18.00;34.70;;;;;;4976282;28;8806;-62
2022/03/30 06:45:11;;;;;;;;;28.67;26.67;18.20;34.30;;;;;;4975412;28;8808;-63
2022/03/30 06:47:37;;;;;;;;;28.25;27.25;17.80;34.90;;;;;;4975860;28;8774;-63
2022/03/30 06:50:03;;;;;;;;;26.67;22.67;17.90;34.90;;;;;;4975819;28;8802;-62
2022/03/30 06:52:32;;;;;;;;;30.75;28.25;18.60;33.60;;;;;;4975998;28;8822;-62
2022/03/30 06:54:59;;;;;;;;;36.00;30.75;18.00;35.10;;;;;;4989815;28;8798;-63
2022/03/30 06:57:27;;;;;;;;;39.25;34.25;18.00;35.40;;;;;;4976009;28;8782;-62
2022/03/30 06:59:53;;;;;;;;;38.00;34.00;18.60;34.00;;;;;;4974034;28;8798;-62
2022/03/30 07:02:19;;;;;;;;;44.75;35.50;18.90;33.50;;;;;;4974772;28;8818;-62
2022/03/30 07:04:45;;;;;;;;;46.25;39.00;19.10;33.10;;;;;;4975304;28;8751;-64
2022/03/30 07:12:39;;;;;;;;;38.75;35.25;18.20;35.40;;;;;;4975812;28;8802;-61
2022/03/30 07:15:05;;;;;;;;;37.75;33.00;18.40;35.10;;;;;;4975600;28;8841;-61
2022/03/30 07:17:33;;;;;;;;;32.50;30.50;18.40;35.10;;;;;;4975563;28;8758;-61
2022/03/30 07:19:59;;;;;;;;;30.00;28.75;18.40;35.40;;;;;;4975486;28;9036;-61
2022/03/30 07:22:25;;;;;;;;;29.50;29.50;18.30;35.90;;;;;;4975454;28;8810;-60
2022/03/30 07:24:51;;;;;;;;;37.00;33.25;17.80;36.60;;;;;;4975497;28;8801;-61
2022/03/30 07:27:16;;;;;;;;;38.00;31.75;18.60;35.30;;;;;;4975472;28;8775;-61
2022/03/30 07:29:42;;;;;;;;;43.00;35.50;18.80;35.00;;;;;;4975207;28;8778;-60
2022/03/30 07:32:08;;;;;;;;;40.75;36.00;19.00;34.80;;;;;;4975614;28;8797;-63
2022/03/30 07:34:36;;;;;;;;;36.00;34.50;19.70;33.10;;;;;;4972670;28;8810;-65
2022/03/30 07:37:03;;;;;;;;;35.50;32.75;20.00;32.70;;;;;;4956046;29;8791;-62
2022/03/30 07:39:29;;;;;;;;;35.75;32.50;20.20;32.10;;;;;;4956100;29;8788;-64
2022/03/30 07:41:55;;;;;;;;;36.75;32.50;20.40;33.10;;;;;;4955842;29;8848;-58
2022/03/30 07:44:21;;;;;;;;;32.33;32.33;20.60;30.50;;;;;;4965037;28;8802;-58
2022/03/30 07:46:48;;;;;;;;;32.33;31.67;20.60;30.30;;;;;;4975247;28;8778;-58
2022/03/30 07:49:15;;;;;;;;;33.00;31.33;20.70;30.40;;;;;;4975342;28;8794;-65
2022/03/30 07:51:42;;;;;;;;;30.33;29.00;20.90;29.90;;;;;;4974519;28;8965;-62
2022/03/30 07:54:08;;;;;;;;;35.25;33.00;20.60;32.00;;;;;;4967237;28;8859;-63
2022/03/30 07:56:34;;;;;;;;;36.33;32.67;20.50;31.20;;;;;;4938441;29;8902;-60
2022/03/30 07:59:00;;;;;;;;;36.33;33.00;20.20;30.30;;;;;;4955152;29;8831;-61
2022/03/30 08:01:26;;;;;;;;;35.00;32.00;20.30;31.00;;;;;;4955670;29;8809;-60
2022/03/30 08:03:52;;;;;;;;;44.33;36.00;20.20;30.10;;;;;;4955984;28;8907;-59
2022/03/30 08:06:18;;;;;;;;;33.67;31.00;20.10;31.10;;;;;;4956048;29;9550;-60
2022/03/30 08:08:44;;;;;;;;;26.00;24.33;20.20;30.30;;;;;;4955838;29;9383;-61
2022/03/30 08:11:10;;;;;;;;;31.33;29.33;20.30;30.00;;;;;;4955800;28;8808;-63
2022/03/30 08:13:36;;;;;;;;;30.33;28.00;20.00;30.30;;;;;;4956006;29;8804;-60
2022/03/30 08:16:03;;;;;;;;;30.00;28.00;19.60;30.40;;;;;;4956060;28;8784;-61
2022/03/30 08:18:29;;;;;;;;;26.67;25.33;19.70;30.30;;;;;;4959251;28;8769;-62
2022/03/30 08:23:39;;;;;;;;;28.00;26.67;20.40;29.90;;;;;;4959138;28;8745;-65
2022/03/30 08:26:05;;;;;;;;;26.67;24.33;20.20;29.50;;;;;;4959123;28;8811;-60
2022/03/30 08:28:31;;;;;;;;;20.00;20.00;19.90;29.60;;;;;;4958994;28;8768;-60
2022/03/30 08:30:57;;;;;;;;;18.00;18.00;19.90;28.50;;;;;;4958994;28;8769;-63
2022/03/30 08:33:26;;;;;;;;;21.33;19.67;19.80;28.90;;;;;;4959064;28;8761;-62
2022/03/30 08:35:53;;;;;;;;;20.67;19.00;20.50;28.00;;;;;;4959154;28;8795;-62
2022/03/30 08:38:19;;;;;;;;;19.67;18.67;20.30;29.50;;;;;;4959178;28;8871;-60
2022/03/30 08:40:46;;;;;;;;;21.00;19.67;20.30;28.10;;;;;;4958790;28;8816;-60
2022/03/30 08:43:12;;;;;;;;;20.00;16.67;20.10;28.50;;;;;;4958559;28;8812;-59
2022/03/30 08:45:38;;;;;;;;;17.67;16.67;20.10;28.20;;;;;;4958995;28;8760;-59
2022/03/30 08:48:05;;;;;;;;;17.33;15.67;20.30;29.20;;;;;;4958970;28;9546;-61
2022/03/30 08:50:31;;;;;;;;;17.33;16.67;20.20;27.90;;;;;;4958492;28;8867;-61
2022/03/30 08:53:06;;;;;;;;;15.33;15.00;19.80;28.30;;;;;;4958646;28;8780;-61
2022/03/30 08:55:32;;;;;;;;;20.00;19.00;20.00;27.90;;;;;;4958836;28;8777;-59
2022/03/30 08:57:59;;;;;;;;;18.33;18.00;20.10;28.30;;;;;;4958744;28;8777;-59
2022/03/30 09:00:25;;;;;;;;;18.00;17.00;19.80;28.40;;;;;;4958530;28;8788;-59
2022/03/30 09:03:01;;;;;;;;;15.33;15.33;19.60;28.40;;;;;;4958333;28;8832;-60
2022/03/30 09:05:32;;;;;;;;;11.67;11.00;19.50;29.00;;;;;;4958398;28;8784;-60
2022/03/30 09:08:11;;;;;;;;;19.33;18.33;19.70;28.60;;;;;;4941400;28;8792;-60
2022/03/30 09:10:38;;;;;;;;;15.00;14.33;19.80;28.60;;;;;;4958475;28;8757;-61
2022/03/30 09:13:06;;;;;;;;;16.00;12.67;19.60;29.10;;;;;;4958193;28;8800;-59
2022/03/30 09:15:34;;;;;;;;;19.00;15.00;19.70;28.80;;;;;;4958159;28;8784;-59
2022/03/30 09:18:02;;;;;;;;;22.00;17.67;20.00;28.40;;;;;;4958166;28;8879;-60
2022/03/30 09:20:28;;;;;;;;;17.00;17.00;20.00;28.60;;;;;;4958106;28;8794;-60
2022/03/30 09:22:56;;;;;;;;;17.33;14.67;19.80;28.50;;;;;;4958219;28;8772;-60
2022/03/30 09:25:27;;;;;;;;;17.33;16.00;19.60;28.70;;;;;;4958006;28;8835;-60
2022/03/30 09:27:55;;;;;;;;;16.00;15.00;19.50;28.90;;;;;;4957930;28;8870;-60
2022/03/30 09:30:23;;;;;;;;;22.00;19.67;19.50;28.80;;;;;;4957928;28;8791;-62
2022/03/30 09:32:50;;;;;;;;;23.00;22.00;19.60;28.90;;;;;;4940914;28;8891;-62
2022/03/30 09:35:38;;;;;;;;;19.33;19.33;19.90;28.50;;;;;;4957849;28;8847;-59
2022/03/30 09:38:11;;;;;;;;;17.33;17.33;19.30;29.00;;;;;;4958020;28;8773;-60
2022/03/30 09:40:38;;;;;;;;;15.00;14.67;19.50;29.10;;;;;;4957528;28;8761;-60
2022/03/30 09:43:19;;;;;;;;;16.33;15.33;20.10;28.30;;;;;;4957967;28;8816;-60
2022/03/30 09:45:47;;;;;;;;;16.33;15.33;20.30;27.70;;;;;;4957762;28;8802;-60
2022/03/30 09:48:13;;;;;;;;;15.67;14.33;20.10;28.10;;;;;;4957716;28;8851;-62
2022/03/30 09:50:51;;;;;;;;;15.33;15.33;20.40;27.80;;;;;;4957421;28;9495;-61
2022/03/30 09:53:19;;;;;;;;;14.00;14.00;20.50;27.40;;;;;;4957700;28;8777;-60
2022/03/30 09:55:56;;;;;;;;;12.67;12.67;20.30;27.80;;;;;;4957501;28;8776;-60
2022/03/30 09:58:25;;;;;;;;;15.33;15.33;20.40;27.90;;;;;;4957698;28;8887;-60
2022/03/30 10:01:09;;;;;;;;;19.00;17.67;20.60;27.70;;;;;;4957285;28;8902;-60
2022/03/30 10:03:41;;;;;;;;;18.67;18.00;20.90;27.40;;;;;;4957528;28;9494;-60
2022/03/30 10:06:08;;;;;;;;;21.00;20.67;20.70;27.50;;;;;;4957161;28;8903;-59
2022/03/30 10:08:35;;;;;;;;;16.67;16.00;21.20;27.10;;;;;;4957436;28;8768;-59
2022/03/30 10:11:01;;;;;;;;;15.00;15.00;21.00;27.30;;;;;;4957597;28;8887;-58
2022/03/30 10:13:28;;;;;;;;;14.00;11.33;20.80;27.30;;;;;;4957517;28;8805;-58
2022/03/30 10:15:54;;;;;;;;;17.67;16.00;20.90;27.30;;;;;;4957155;28;9593;-58
2022/03/30 10:18:22;;;;;;;;;11.67;10.67;20.40;27.00;;;;;;4957027;28;9431;-59
2022/03/30 10:21:01;;;;;;;;;17.00;17.00;20.70;26.90;;;;;;4956994;28;8823;-59
2022/03/30 10:23:46;;;;;;;;;14.67;13.33;20.80;26.80;;;;;;4956985;28;8772;-59
2022/03/30 10:26:41;;;;;;;;;16.00;16.00;20.50;27.00;;;;;;4957027;28;8764;-59
2022/03/30 10:29:09;;;;;;;;;18.00;17.33;21.10;26.50;;;;;;4956690;28;8768;-65
2022/03/30 10:31:35;;;;;;;;;15.33;14.67;21.20;26.80;;;;;;4957035;28;8784;-62
2022/03/30 10:34:24;;;;;;;;;17.00;16.00;21.10;27.50;;;;;;4957021;28;9542;-60
2022/03/30 10:37:31;;;;;;;;;17.67;17.00;20.80;27.10;;;;;;4957061;28;8800;-60
2022/03/30 10:40:03;;;;;;;;;18.33;16.00;20.80;28.20;;;;;;4948143;28;8752;-61
2022/03/30 10:42:54;;;;;;;;;18.33;15.67;20.90;28.00;;;;;;4956884;28;9586;-62
2022/03/30 10:45:34;;;;;;;;;18.00;17.00;20.40;27.80;;;;;;4956808;28;8781;-62
2022/03/30 10:48:21;;;;;;;;;19.33;19.00;20.30;28.00;;;;;;4956896;28;9485;-61
2022/03/30 10:51:06;;;;;;;;;26.67;25.00;20.50;28.40;;;;;;4956527;28;8995;-61
2022/03/30 10:53:32;;;;;;;;;19.00;17.33;20.70;28.30;;;;;;4956659;28;9489;-60
2022/03/30 10:56:17;;;;;;;;;16.00;16.00;20.90;27.40;;;;;;4956558;28;8772;-59
2022/03/30 10:59:00;;;;;;;;;16.00;16.00;20.80;27.60;;;;;;4956424;28;9485;-60
2022/03/30 11:01:27;;;;;;;;;19.67;16.00;20.40;28.20;;;;;;4956355;28;8838;-60
2022/03/30 11:04:26;;;;;;;;;18.00;17.33;20.30;28.00;;;;;;4956590;28;8803;-59
2022/03/30 11:06:54;;;;;;;;;20.33;18.00;20.80;28.00;;;;;;4896997;29;8820;-60
2022/03/30 11:09:28;;;;;;;;;18.67;17.00;20.70;28.00;;;;;;4896963;29;8800;-60
2022/03/30 11:12:08;;;;;;;;;18.00;16.33;20.70;27.60;;;;;;4897166;29;9448;-60
2022/03/30 11:14:44;;;;;;;;;22.33;19.67;20.40;28.10;;;;;;4881525;29;8809;-60
2022/03/30 11:17:13;;;;;;;;;19.67;17.00;20.50;27.70;;;;;;4897163;29;8802;-60
2022/03/30 11:19:47;;;;;;;;;18.33;17.00;20.70;27.70;;;;;;4896932;29;8849;-60
2022/03/30 11:22:15;;;;;;;;;21.33;17.67;20.80;27.50;;;;;;4896721;29;8951;-60
2022/03/30 11:24:46;;;;;;;;;19.00;19.00;21.20;27.10;;;;;;4896992;29;8804;-60
2022/03/30 11:27:11;;;;;;;;;17.00;17.00;21.40;27.00;;;;;;4896974;29;8797;-60
2022/03/30 11:30:10;;;;;;;;;17.67;16.00;21.90;26.20;;;;;;4897334;29;8893;-60
2022/03/30 11:33:01;;;;;;;;;17.67;17.00;22.90;25.00;;;;;;4883421;29;8824;-60
2022/03/30 11:35:34;;;;;;;;;18.00;17.00;23.00;24.60;;;;;;4887312;29;8812;-60
2022/03/30 11:38:10;;;;;;;;;20.00;19.00;22.40;25.00;;;;;;4896986;29;8873;-60
2022/03/30 11:40:44;;;;;;;;;17.00;15.33;22.50;25.10;;;;;;4896867;29;8785;-59
2022/03/30 11:43:11;;;;;;;;;22.00;18.33;23.10;24.70;;;;;;4944717;29;8890;-59
2022/03/30 11:45:38;;;;;;;;;18.00;17.67;22.90;24.40;;;;;;4956239;29;8768;-59
2022/03/30 11:48:08;;;;;;;;;17.67;16.67;23.30;24.10;;;;;;4956165;28;8780;-60
2022/03/30 11:50:48;;;;;;;;;17.67;17.67;23.50;24.40;;;;;;4961796;28;8825;-60
2022/03/30 11:53:18;;;;;;;;;19.33;17.67;23.00;24.70;;;;;;4968639;28;8893;-59
2022/03/30 11:55:59;;;;;;;;;23.33;21.67;22.70;25.10;;;;;;4960983;28;8776;-59
2022/03/30 11:58:34;;;;;;;;;18.00;15.67;22.30;25.40;;;;;;4970441;28;8778;-66
2022/03/30 12:01:06;;;;;;;;;20.67;18.67;21.90;26.30;;;;;;4972370;28;8862;-63
2022/03/30 12:03:32;;;;;;;;;16.67;15.00;21.80;26.50;;;;;;4963541;28;8772;-59
2022/03/30 12:06:01;;;;;;;;;18.00;18.00;21.50;26.30;;;;;;4974448;28;8787;-59
2022/03/30 12:08:28;;;;;;;;;23.33;22.33;22.10;25.80;;;;;;4963540;28;8781;-59
2022/03/30 12:11:01;;;;;;;;;12.33;11.00;22.70;25.40;;;;;;4959373;28;8789;-59
2022/03/30 12:13:28;;;;;;;;;20.00;20.00;21.80;26.60;;;;;;4959128;28;8827;-59
2022/03/30 12:16:15;;;;;;;;;19.67;17.67;22.10;26.60;;;;;;4959416;28;8752;-59
2022/03/30 12:18:53;;;;;;;;;22.33;19.00;22.60;25.90;;;;;;4962300;28;8841;-59
2022/03/30 12:21:21;;;;;;;;;18.67;17.00;22.80;25.60;;;;;;4978509;28;8817;-59
2022/03/30 12:24:03;;;;;;;;;21.00;20.00;22.60;25.60;;;;;;4977782;28;8779;-59
2022/03/30 12:26:31;;;;;;;;;18.67;16.33;22.50;25.10;;;;;;4963219;28;8777;-58
2022/03/30 12:29:07;;;;;;;;;19.33;18.33;22.50;25.60;;;;;;4959050;28;8796;-58
2022/03/30 12:31:53;;;;;;;;;24.00;22.67;21.90;26.50;;;;;;4958964;28;8776;-59
2022/03/30 12:34:20;;;;;;;;;19.33;19.33;22.20;26.20;;;;;;4947067;28;8910;-58
2022/03/30 12:36:54;;;;;;;;;21.67;19.67;22.20;26.30;;;;;;4978167;28;9470;-59
2022/03/30 12:39:24;;;;;;;;;22.00;21.00;21.90;26.50;;;;;;4966757;28;8907;-59
2022/03/30 12:42:05;;;;;;;;;19.67;19.67;22.00;26.60;;;;;;4958877;28;9577;-59
2022/03/30 12:44:34;;;;;;;;;17.33;17.00;22.40;25.50;;;;;;4958695;28;8773;-59
2022/03/30 12:47:01;;;;;;;;;22.67;21.33;21.90;26.00;;;;;;4959054;28;8797;-59
2022/03/30 12:49:44;;;;;;;;;20.67;20.00;21.90;26.50;;;;;;4954498;28;8810;-59
2022/03/30 12:52:15;;;;;;;;;16.67;16.67;21.70;26.50;;;;;;4975321;28;8853;-58
2022/03/30 12:54:43;;;;;;;;;26.67;24.00;22.30;25.50;;;;;;4973008;28;8759;-59